createdAt,value
2019-06-07T00:02:18.770Z,13.54
2019-06-07T00:04:46.893Z,13.46
2019-06-07T00:07:16.965Z,13.36
2019-06-07T00:09:44.355Z,13.17
2019-06-07T00:12:14.075Z,13.18
2019-06-07T00:14:41.806Z,13.16
2019-06-07T00:17:12.529Z,13.20
2019-06-07T00:19:39.273Z,13.40
2019-06-07T00:22:16.595Z,13.10
2019-06-07T00:24:36.734Z,13.24
2019-06-07T00:27:04.791Z,13.11
2019-06-07T00:29:32.560Z,13.20
2019-06-07T00:32:00.375Z,13.37
2019-06-07T00:34:28.262Z,13.46
2019-06-07T00:36:56.187Z,13.28
2019-06-07T00:39:25.973Z,13.43
2019-06-07T00:41:53.616Z,13.30
2019-06-07T00:44:23.189Z,13.45
2019-06-07T00:46:51.072Z,13.55
2019-06-07T00:49:33.437Z,13.54
2019-06-07T00:51:51.654Z,13.60
2019-06-07T00:54:21.499Z,13.55
2019-06-07T00:56:47.897Z,13.53
2019-06-07T00:59:18.576Z,13.53
2019-06-07T01:01:45.354Z,13.53
2019-06-07T01:04:15.610Z,13.58
2019-06-07T01:06:42.793Z,13.63
2019-06-07T01:09:10.604Z,13.49
2019-06-07T01:11:38.362Z,13.60
2019-06-07T01:14:06.173Z,13.64
2019-06-07T01:16:55.447Z,13.39
2019-06-07T01:19:04.444Z,13.46
2019-06-07T01:21:32.270Z,13.19
2019-06-07T01:24:11.473Z,13.06
2019-06-07T01:26:30.542Z,13.06
2019-06-07T01:28:58.453Z,12.98
2019-06-07T01:31:28.516Z,12.91
2019-06-07T01:33:55.930Z,12.84
2019-06-07T01:36:27.500Z,12.81
2019-06-07T01:38:53.388Z,12.62
2019-06-07T01:41:23.659Z,12.67
2019-06-07T01:43:50.885Z,12.49
2019-06-07T01:46:20.598Z,12.48
2019-06-07T01:48:49.800Z,12.48
2019-06-07T01:51:18.932Z,12.41
2019-06-07T01:53:47.676Z,12.51
2019-06-07T01:56:18.390Z,12.46
2019-06-07T01:58:45.212Z,12.40
2019-06-07T02:01:13.013Z,12.52
2019-06-07T02:03:40.786Z,12.63
2019-06-07T02:06:10.415Z,12.39
2019-06-07T02:08:38.242Z,12.48
2019-06-07T02:11:06.045Z,12.42
2019-06-07T02:13:33.833Z,12.33
2019-06-07T02:16:01.640Z,12.47
2019-06-07T02:18:34.698Z,12.65
2019-06-07T02:21:00.973Z,12.51
2019-06-07T02:23:33.049Z,12.37
2019-06-07T02:25:58.475Z,12.19
2019-06-07T02:28:34.642Z,12.26
2019-06-07T02:30:59.992Z,12.25
2019-06-07T02:33:29.020Z,12.26
2019-06-07T02:35:55.469Z,12.26
2019-06-07T02:38:27.659Z,12.25
2019-06-07T02:40:52.946Z,12.22
2019-06-07T02:43:22.086Z,12.09
2019-06-07T02:45:49.913Z,12.04
2019-06-07T02:48:17.692Z,11.84
2019-06-07T02:50:45.657Z,11.79
2019-06-07T02:53:13.437Z,11.75
2019-06-07T02:56:32.860Z,11.68
2019-06-07T02:58:10.974Z,11.64
2019-06-07T03:01:05.664Z,11.65
2019-06-07T03:03:17.501Z,11.59
2019-06-07T03:05:46.068Z,11.73
2019-06-07T03:08:15.616Z,11.72
2019-06-07T03:10:46.433Z,11.68
2019-06-07T03:13:18.797Z,11.74
2019-06-07T03:15:50.327Z,11.76
2019-06-07T03:18:41.221Z,11.48
2019-06-07T03:21:13.239Z,11.46
2019-06-07T03:23:41.176Z,11.53
2019-06-07T03:26:08.946Z,11.36
2019-06-07T03:28:37.954Z,11.22
2019-06-07T03:31:06.616Z,11.22
2019-06-07T03:33:41.492Z,11.23
2019-06-07T03:36:22.669Z,11.22
2019-06-07T03:38:35.256Z,11.46
2019-06-07T03:41:04.049Z,11.30
2019-06-07T03:43:34.963Z,11.35
2019-06-07T03:46:01.511Z,11.31
2019-06-07T03:48:30.664Z,11.30
2019-06-07T03:51:04.578Z,11.18
2019-06-07T03:53:29.700Z,11.32
2019-06-07T03:55:58.411Z,11.16
2019-06-07T03:58:31.959Z,11.03
2019-06-07T04:00:57.136Z,11.07
2019-06-07T04:03:36.998Z,11.18
2019-06-07T04:05:55.252Z,11.33
2019-06-07T04:08:23.024Z,11.34
2019-06-07T04:10:59.865Z,11.37
2019-06-07T04:13:20.534Z,11.10
2019-06-07T04:15:48.531Z,10.97
2019-06-07T04:18:16.535Z,11.03
2019-06-07T04:20:44.368Z,11.01
2019-06-07T04:23:27.661Z,11.01
2019-06-07T04:25:42.614Z,11.05
2019-06-07T04:28:10.747Z,11.13
2019-06-07T04:30:42.669Z,11.11
2019-06-07T04:33:11.646Z,11.21
2019-06-07T04:35:42.540Z,11.14
2019-06-07T04:38:10.191Z,11.08
2019-06-07T04:40:39.969Z,11.13
2019-06-07T04:43:08.223Z,11.08
2019-06-07T04:45:41.849Z,11.20
2019-06-07T04:48:06.901Z,11.07
2019-06-07T04:50:38.278Z,11.20
2019-06-07T04:53:06.735Z,10.98
2019-06-07T04:55:36.619Z,11.01
2019-06-07T04:58:05.047Z,11.14
2019-06-07T05:00:49.699Z,11.04
2019-06-07T05:03:04.880Z,11.09
2019-06-07T05:05:34.549Z,11.05
2019-06-07T05:08:07.399Z,11.01
2019-06-07T05:10:35.179Z,11.11
2019-06-07T05:13:02.770Z,11.23
2019-06-07T05:15:32.259Z,11.08
2019-06-07T05:18:00.034Z,11.31
2019-06-07T05:20:27.869Z,11.47
2019-06-07T05:22:55.650Z,11.16
2019-06-07T05:25:23.439Z,11.09
2019-06-07T05:27:51.257Z,11.14
2019-06-07T05:33:05.204Z,11.32
2019-06-07T05:35:33.291Z,11.34
2019-06-07T05:38:02.614Z,11.16
2019-06-07T05:40:39.244Z,11.18
2019-06-07T05:43:07.254Z,11.26
2019-06-07T05:45:39.285Z,11.33
2019-06-07T05:48:07.393Z,11.48
2019-06-07T05:50:44.856Z,11.59
2019-06-07T05:53:05.964Z,11.37
2019-06-07T05:55:35.288Z,11.36
2019-06-07T05:58:03.270Z,11.40
2019-06-07T06:00:31.383Z,11.55
2019-06-07T06:03:05.408Z,11.61
2019-06-07T06:05:34.552Z,11.51
2019-06-07T06:07:58.596Z,11.42
2019-06-07T06:10:26.401Z,11.59
2019-06-07T06:12:54.176Z,11.49
2019-06-07T06:15:41.587Z,11.67
2019-06-07T06:17:53.735Z,11.74
2019-06-07T06:20:22.122Z,11.90
2019-06-07T06:22:51.139Z,12.06
2019-06-07T06:25:34.730Z,12.18
2019-06-07T06:28:09.918Z,12.35
2019-06-07T06:30:19.355Z,12.45
2019-06-07T06:32:54.970Z,12.63
2019-06-07T06:35:18.733Z,12.74
2019-06-07T06:37:52.737Z,12.62
2019-06-07T06:40:16.528Z,12.91
2019-06-07T06:42:45.455Z,12.94
2019-06-07T06:45:16.349Z,12.95
2019-06-07T06:47:47.707Z,13.00
2019-06-07T06:50:13.937Z,12.85
2019-06-07T06:52:45.133Z,12.98
2019-06-07T06:55:11.740Z,13.28
2019-06-07T06:57:41.476Z,13.65
2019-06-07T07:00:10.491Z,13.72
2019-06-07T07:03:27.041Z,13.98
2019-06-07T07:05:09.032Z,14.43
2019-06-07T07:07:36.811Z,13.78
2019-06-07T07:10:06.217Z,13.85
2019-06-07T07:12:33.982Z,13.88
2019-06-07T07:15:01.803Z,13.93
2019-06-07T07:17:47.786Z,13.85
2019-06-07T07:19:59.429Z,13.77
2019-06-07T07:22:27.208Z,13.60
2019-06-07T07:24:55.109Z,13.58
2019-06-07T07:27:22.979Z,13.34
2019-06-07T07:30:10.217Z,13.47
2019-06-07T07:32:20.531Z,13.68
2019-06-07T07:34:51.481Z,13.97
2019-06-07T07:37:17.974Z,14.03
2019-06-07T07:39:48.680Z,13.79
2019-06-07T07:42:21.334Z,14.03
2019-06-07T07:44:47.188Z,14.45
2019-06-07T07:47:15.031Z,14.58
2019-06-07T07:49:44.704Z,14.73
2019-06-07T07:52:12.464Z,14.77
2019-06-07T07:54:40.244Z,14.94
2019-06-07T07:57:08.027Z,14.68
2019-06-07T07:59:44.013Z,14.70
2019-06-07T08:02:05.554Z,15.34
2019-06-07T08:05:12.928Z,15.33
2019-06-07T08:07:03.165Z,15.41
2019-06-07T08:09:30.971Z,15.86
2019-06-07T08:12:00.720Z,15.83
2019-06-07T08:14:28.470Z,16.06
2019-06-07T08:16:57.862Z,15.99
2019-06-07T08:19:25.974Z,15.73
2019-06-07T08:21:55.674Z,16.33
2019-06-07T08:24:23.428Z,16.75
2019-06-07T08:27:13.036Z,17.14
2019-06-07T08:29:20.975Z,17.90
2019-06-07T08:31:50.831Z,17.89
2019-06-07T08:34:18.562Z,17.32
2019-06-07T08:36:46.348Z,17.43
2019-06-07T08:39:14.164Z,17.92
2019-06-07T08:41:54.085Z,17.78
2019-06-07T08:44:23.206Z,17.77
2019-06-07T08:46:41.419Z,17.90
2019-06-07T08:49:09.285Z,17.39
2019-06-07T08:52:03.012Z,17.92
2019-06-07T08:54:26.281Z,17.98
2019-06-07T08:57:06.652Z,17.75
2019-06-07T08:59:23.849Z,18.17
2019-06-07T09:01:53.772Z,17.79
2019-06-07T09:04:21.426Z,18.00
2019-06-07T09:07:18.123Z,18.64
2019-06-07T09:09:19.235Z,20.27
2019-06-07T09:11:47.108Z,18.35
2019-06-07T09:14:14.893Z,18.20
2019-06-07T09:16:42.736Z,19.39
2019-06-07T09:19:11.332Z,19.58
2019-06-07T09:21:40.380Z,20.26
2019-06-07T09:24:11.487Z,19.79
2019-06-07T09:26:37.912Z,20.43
2019-06-07T09:29:09.443Z,20.47
2019-06-07T09:31:51.889Z,19.63
2019-06-07T09:34:13.725Z,20.60
2019-06-07T09:36:34.884Z,20.06
2019-06-07T09:39:08.303Z,20.20
2019-06-07T09:41:47.328Z,20.34
2019-06-07T09:44:21.326Z,20.43
2019-06-07T09:46:34.678Z,19.55
2019-06-07T09:49:18.750Z,19.41
2019-06-07T09:51:32.294Z,19.74
2019-06-07T09:54:01.233Z,20.07
2019-06-07T09:56:29.897Z,20.37
2019-06-07T09:58:59.488Z,20.03
2019-06-07T10:01:27.464Z,20.52
2019-06-07T10:03:55.276Z,21.21
2019-06-07T10:06:23.085Z,20.44
2019-06-07T10:11:20.647Z,20.22
2019-06-07T10:13:48.446Z,21.65
2019-06-07T10:16:16.277Z,22.57
2019-06-07T10:18:44.051Z,20.75
2019-06-07T10:21:15.008Z,21.07
2019-06-07T10:23:41.924Z,21.26
2019-06-07T10:26:10.145Z,22.28
2019-06-07T10:28:38.122Z,21.09
2019-06-07T10:31:07.799Z,20.91
2019-06-07T10:33:35.647Z,20.67
2019-06-07T10:36:04.482Z,20.67
2019-06-07T10:38:32.371Z,20.89
2019-06-07T10:41:00.791Z,21.50
2019-06-07T10:43:28.841Z,21.19
2019-06-07T10:45:56.607Z,22.33
2019-06-07T10:48:25.189Z,21.50
2019-06-07T10:50:53.082Z,21.67
2019-06-07T10:53:20.906Z,22.02
2019-06-07T10:55:48.727Z,21.76
2019-06-07T10:58:16.521Z,21.40
2019-06-07T11:00:44.303Z,21.89
2019-06-07T11:03:12.123Z,21.75
2019-06-07T11:05:41.445Z,21.97
2019-06-07T11:08:10.271Z,21.97
2019-06-07T11:10:38.366Z,21.20
2019-06-07T11:13:06.178Z,21.58
2019-06-07T11:15:33.993Z,21.79
2019-06-07T11:18:01.910Z,22.01
2019-06-07T11:20:29.827Z,22.07
2019-06-07T11:22:57.598Z,21.92
2019-06-07T11:25:25.411Z,21.73
2019-06-07T11:27:53.296Z,22.01
2019-06-07T11:30:21.143Z,21.66
2019-06-07T11:32:49.004Z,21.94
2019-06-07T11:35:17.151Z,22.05
2019-06-07T11:37:44.957Z,22.54
2019-06-07T11:40:35.532Z,22.55
2019-06-07T11:42:42.601Z,22.13
2019-06-07T11:45:12.715Z,22.22
2019-06-07T11:47:40.359Z,21.93
2019-06-07T11:50:11.589Z,22.23
2019-06-07T11:52:39.829Z,22.46
2019-06-07T11:55:08.994Z,21.79
2019-06-07T11:57:37.114Z,22.30
2019-06-07T12:00:09.376Z,22.92
2019-06-07T12:02:37.363Z,23.18
2019-06-07T12:05:05.260Z,22.72
2019-06-07T12:07:33.058Z,22.58
2019-06-07T12:10:00.862Z,23.17
2019-06-07T12:12:28.723Z,23.07
2019-06-07T12:14:56.471Z,23.36
2019-06-07T12:17:24.383Z,22.75
2019-06-07T12:19:55.070Z,22.74
2019-06-07T12:22:22.909Z,22.56
2019-06-07T12:24:50.771Z,22.59
2019-06-07T12:27:18.903Z,22.65
2019-06-07T12:29:46.673Z,22.86
2019-06-07T12:32:15.380Z,23.20
2019-06-07T12:34:43.327Z,23.03
2019-06-07T12:37:11.771Z,22.65
2019-06-07T12:39:39.908Z,22.79
2019-06-07T12:42:07.717Z,22.87
2019-06-07T12:44:35.480Z,22.57
2019-06-07T12:47:03.269Z,22.90
2019-06-07T12:49:31.056Z,23.30
2019-06-07T12:51:58.879Z,23.34
2019-06-07T12:54:26.690Z,23.48
2019-06-07T12:56:54.571Z,23.13
2019-06-07T12:59:22.784Z,23.37
2019-06-07T13:01:51.782Z,23.29
2019-06-07T13:04:20.529Z,23.27
2019-06-07T13:06:48.414Z,23.57
2019-06-07T13:09:17.428Z,23.21
2019-06-07T13:11:45.684Z,23.30
2019-06-07T13:14:13.495Z,23.43
2019-06-07T13:16:41.324Z,23.32
2019-06-07T13:19:09.134Z,23.52
2019-06-07T13:21:37.057Z,23.58
2019-06-07T13:24:04.889Z,23.36
2019-06-07T13:26:35.445Z,23.48
2019-06-07T13:29:03.781Z,23.69
2019-06-07T13:31:31.557Z,23.74
2019-06-07T13:33:59.400Z,23.61
2019-06-07T13:36:28.260Z,23.97
2019-06-07T13:38:56.535Z,23.81
2019-06-07T13:41:36.542Z,23.58
2019-06-07T13:43:54.058Z,23.82
2019-06-07T13:46:23.132Z,23.92
2019-06-07T13:48:51.248Z,23.88
2019-06-07T13:51:21.174Z,23.91
2019-06-07T13:53:48.932Z,24.01
2019-06-07T13:56:17.771Z,24.04
2019-06-07T13:58:45.806Z,23.99
2019-06-07T14:01:13.634Z,24.15
2019-06-07T14:03:41.426Z,24.12
2019-06-07T14:06:09.259Z,24.17
2019-06-07T14:08:37.164Z,24.32
2019-06-07T14:11:05.017Z,24.56
2019-06-07T14:13:32.829Z,24.21
2019-06-07T14:16:00.658Z,24.21
2019-06-07T14:18:28.767Z,24.67
2019-06-07T14:20:58.921Z,24.54
2019-06-07T14:23:43.721Z,24.58
2019-06-07T14:25:56.264Z,24.55
2019-06-07T14:28:27.718Z,24.57
2019-06-07T14:30:53.863Z,24.78
2019-06-07T14:33:23.621Z,24.68
2019-06-07T14:35:54.795Z,24.71
2019-06-07T14:38:23.162Z,24.61
2019-06-07T14:40:50.979Z,24.94
2019-06-07T14:43:19.167Z,24.79
2019-06-07T14:45:47.020Z,24.94
2019-06-07T14:48:14.858Z,24.84
2019-06-07T14:50:42.690Z,25.10
2019-06-07T14:53:10.544Z,25.17
2019-06-07T14:55:38.308Z,24.95
2019-06-07T14:58:06.146Z,24.93
2019-06-07T15:00:43.095Z,24.80
2019-06-07T15:03:11.185Z,24.70
2019-06-07T15:05:40.505Z,25.00
2019-06-07T15:08:08.576Z,25.08
2019-06-07T15:10:36.365Z,25.08
2019-06-07T15:13:04.333Z,24.66
2019-06-07T15:15:32.743Z,24.61
2019-06-07T15:18:00.855Z,24.08
2019-06-07T15:20:30.301Z,24.37
2019-06-07T15:22:58.371Z,24.60
2019-06-07T15:25:27.067Z,24.62
2019-06-07T15:27:55.056Z,24.65
2019-06-07T15:30:22.890Z,24.70
2019-06-07T15:32:50.722Z,24.61
2019-06-07T15:35:18.506Z,24.68
2019-06-07T15:37:48.098Z,24.37
2019-06-07T15:40:16.426Z,24.57
2019-06-07T15:42:52.369Z,24.51
2019-06-07T15:45:14.023Z,24.43
2019-06-07T15:47:41.804Z,24.40
2019-06-07T15:50:10.520Z,24.48
2019-06-07T15:52:40.258Z,24.38
2019-06-07T15:55:09.992Z,24.45
2019-06-07T15:57:39.325Z,24.11
2019-06-07T16:00:10.903Z,24.03
2019-06-07T16:02:39.745Z,24.32
2019-06-07T16:05:07.850Z,24.24
2019-06-07T16:07:36.241Z,24.31
2019-06-07T16:10:05.563Z,24.47
2019-06-07T16:12:34.536Z,24.48
2019-06-07T16:15:05.396Z,24.57
2019-06-07T16:17:33.305Z,24.24
2019-06-07T16:20:01.131Z,24.02
2019-06-07T16:22:28.920Z,24.24
2019-06-07T16:24:56.742Z,24.31
2019-06-07T16:27:24.586Z,24.40
2019-06-07T16:29:52.465Z,24.67
2019-06-07T16:32:20.269Z,24.57
2019-06-07T16:34:48.170Z,24.65
2019-06-07T16:37:16.128Z,24.62
2019-06-07T16:39:44.785Z,24.68
2019-06-07T16:42:12.816Z,24.49
2019-06-07T16:44:40.750Z,24.28
2019-06-07T16:47:08.649Z,24.30
2019-06-07T16:49:36.756Z,24.62
2019-06-07T16:52:04.967Z,24.93
2019-06-07T16:54:35.534Z,25.20
2019-06-07T16:57:02.587Z,25.15
2019-06-07T16:59:30.361Z,25.19
2019-06-07T17:01:58.312Z,25.22
2019-06-07T17:04:26.227Z,25.26
2019-06-07T17:06:54.094Z,24.82
2019-06-07T17:09:21.927Z,24.34
2019-06-07T17:11:49.965Z,21.37
2019-06-07T17:14:17.768Z,21.02
2019-06-07T17:16:46.159Z,20.41
2019-06-07T17:19:15.293Z,20.33
2019-06-07T17:21:43.376Z,20.40
2019-06-07T17:24:11.384Z,20.55
2019-06-07T17:26:39.445Z,20.55
2019-06-07T17:29:07.421Z,20.60
2019-06-07T17:31:35.229Z,20.61
2019-06-07T17:34:03.044Z,20.78
2019-06-07T17:36:30.988Z,20.73
2019-06-07T17:38:58.792Z,20.66
2019-06-07T17:41:26.653Z,21.04
2019-06-07T17:43:59.781Z,20.95
2019-06-07T17:46:24.230Z,20.98
2019-06-07T17:48:52.065Z,20.95
2019-06-07T17:51:19.926Z,20.87
2019-06-07T17:53:47.859Z,20.85
2019-06-07T17:56:15.679Z,20.80
2019-06-07T17:58:44.324Z,20.57
2019-06-07T18:01:12.163Z,20.42
2019-06-07T18:03:39.980Z,20.25
2019-06-07T18:06:07.823Z,20.28
2019-06-07T18:08:35.739Z,19.88
2019-06-07T18:11:03.577Z,20.01
2019-06-07T18:13:31.907Z,19.81
2019-06-07T18:16:00.109Z,19.65
2019-06-07T18:18:28.223Z,19.65
2019-06-07T18:20:56.278Z,19.72
2019-06-07T18:23:24.246Z,19.94
2019-06-07T18:25:52.596Z,19.59
2019-06-07T18:28:20.908Z,19.58
2019-06-07T18:30:48.899Z,19.41
2019-06-07T18:33:16.991Z,19.03
2019-06-07T18:35:45.060Z,19.18
2019-06-07T18:38:12.986Z,18.83
2019-06-07T18:40:41.483Z,18.90
2019-06-07T18:43:09.306Z,18.40
2019-06-07T18:45:37.326Z,18.50
2019-06-07T18:48:05.667Z,18.63
2019-06-07T18:50:34.004Z,18.60
2019-06-07T18:53:01.972Z,18.58
2019-06-07T18:55:29.737Z,18.72
2019-06-07T18:57:58.533Z,18.44
2019-06-07T19:00:28.570Z,18.53
2019-06-07T19:02:56.380Z,18.10
2019-06-07T19:05:24.371Z,18.10
2019-06-07T19:07:52.580Z,17.95
2019-06-07T19:10:22.638Z,17.92
2019-06-07T19:12:50.916Z,17.92
2019-06-07T19:15:21.273Z,18.10
2019-06-07T19:17:49.761Z,17.93
2019-06-07T19:20:18.508Z,18.20
2019-06-07T19:22:46.312Z,18.36
2019-06-07T19:25:15.381Z,18.46
2019-06-07T19:27:43.165Z,18.64
2019-06-07T19:30:13.282Z,18.59
2019-06-07T19:32:41.106Z,18.55
2019-06-07T19:35:09.642Z,18.56
2019-06-07T19:37:37.439Z,18.39
2019-06-07T19:40:06.627Z,18.48
2019-06-07T19:42:34.430Z,18.31
2019-06-07T19:45:27.059Z,18.58
2019-06-07T19:47:32.082Z,18.44
2019-06-07T19:50:00.941Z,18.26
2019-06-07T19:52:28.852Z,18.48
2019-06-07T19:54:57.589Z,18.16
2019-06-07T19:57:25.629Z,18.13
2019-06-07T19:59:53.531Z,18.13
2019-06-07T20:02:21.365Z,18.00
2019-06-07T20:04:49.147Z,17.73
2019-06-07T20:07:16.971Z,17.45
2019-06-07T20:09:44.794Z,17.59
2019-06-07T20:12:12.636Z,17.70
2019-06-07T20:14:40.453Z,17.06
2019-06-07T20:17:08.217Z,16.98
2019-06-07T20:19:36.052Z,16.73
2019-06-07T20:22:05.386Z,16.65
2019-06-07T20:24:33.569Z,16.58
2019-06-07T20:27:02.336Z,16.52
2019-06-07T20:29:30.325Z,16.56
2019-06-07T20:31:58.302Z,16.51
2019-06-07T20:34:26.135Z,16.49
2019-06-07T20:36:54.130Z,16.49
2019-06-07T20:39:21.972Z,16.49
2019-06-07T20:41:49.781Z,16.38
2019-06-07T20:44:17.646Z,16.41
2019-06-07T20:46:45.455Z,16.47
2019-06-07T20:49:13.348Z,16.25
2019-06-07T20:51:41.177Z,16.40
2019-06-07T20:54:09.197Z,16.56
2019-06-07T20:56:37.097Z,16.57
2019-06-07T20:59:05.038Z,16.87
2019-06-07T21:01:33.056Z,16.60
2019-06-07T21:04:01.139Z,16.86
2019-06-07T21:06:29.074Z,16.71
2019-06-07T21:08:56.966Z,16.68
2019-06-07T21:11:24.844Z,16.90
2019-06-07T21:13:52.699Z,16.71
2019-06-07T21:16:20.525Z,16.44
2019-06-07T21:18:48.487Z,16.62
2019-06-07T21:21:16.391Z,16.36
2019-06-07T21:23:44.292Z,16.49
2019-06-07T21:26:12.189Z,16.65
2019-06-07T21:28:40.031Z,16.72
2019-06-07T21:31:10.456Z,16.64
2019-06-07T21:33:38.640Z,16.59
2019-06-07T21:36:07.808Z,16.85
2019-06-07T21:38:35.780Z,16.53
2019-06-07T21:41:04.173Z,16.59
2019-06-07T21:43:32.321Z,16.49
2019-06-07T21:46:05.510Z,16.42
2019-06-07T21:48:31.110Z,16.17
2019-06-07T21:50:58.995Z,16.11
2019-06-07T21:53:26.827Z,16.20
2019-06-07T21:55:54.783Z,16.36
2019-06-07T21:58:24.568Z,16.15
2019-06-07T22:01:15.238Z,16.12
2019-06-07T22:03:43.272Z,16.58
2019-06-07T22:06:11.704Z,16.68
2019-06-07T22:08:39.864Z,16.37
2019-06-07T22:11:08.206Z,16.10
2019-06-07T22:13:36.274Z,15.91
2019-06-07T22:16:04.172Z,15.84
2019-06-07T22:18:32.284Z,16.40
2019-06-07T22:21:00.140Z,16.55
2019-06-07T22:23:27.976Z,16.76
2019-06-07T22:25:55.901Z,16.86
2019-06-07T22:28:23.807Z,17.01
2019-06-07T22:30:51.678Z,16.69
2019-06-07T22:33:19.520Z,16.92
2019-06-07T22:35:47.346Z,16.65
2019-06-07T22:38:15.170Z,16.65
2019-06-07T22:40:42.963Z,16.91
2019-06-07T22:43:11.846Z,17.02
2019-06-07T22:45:39.904Z,17.24
2019-06-07T22:48:08.862Z,17.16
2019-06-07T22:50:36.783Z,17.19
2019-06-07T22:53:04.597Z,17.29
2019-06-07T22:55:32.435Z,17.37
2019-06-07T22:58:00.456Z,17.21
2019-06-07T23:00:30.081Z,17.31
2019-06-07T23:02:59.790Z,16.94
2019-06-07T23:05:27.689Z,17.15
2019-06-07T23:07:55.490Z,16.99
2019-06-07T23:10:23.424Z,16.85
2019-06-07T23:12:51.213Z,16.93
2019-06-07T23:15:20.758Z,16.89
2019-06-07T23:17:48.745Z,17.04
2019-06-07T23:20:18.051Z,17.05
2019-06-07T23:22:45.996Z,16.94
2019-06-07T23:25:17.655Z,16.88
2019-06-07T23:27:45.479Z,17.08
2019-06-07T23:30:16.520Z,17.08
2019-06-07T23:32:44.500Z,17.04
2019-06-07T23:35:14.889Z,17.14
2019-06-07T23:37:42.759Z,17.18
2019-06-07T23:40:14.965Z,17.04
2019-06-07T23:42:43.149Z,16.96
2019-06-07T23:45:11.998Z,17.02
2019-06-07T23:47:40.842Z,16.77
2019-06-07T23:50:09.542Z,17.05
2019-06-07T23:52:37.338Z,16.88
2019-06-07T23:55:08.421Z,16.87
2019-06-07T23:57:36.248Z,16.87
